Time;durP1;ratioP1;P1;durP2;ratioP2;P2;SDS_P1;SDS_P2;PMS_P1;PMS_P2;Temp;Humidity;BMP_temperature;BMP_pressure;BME280_temperature;BME280_humidity;BME280_pressure;Samples;Min_cycle;Max_cycle;Signal;HPM_P1;HPM_P2
2021/08/04 00:01:10;;;;;;;3.90;2.75;;;14.10;93.90;;;;;;5034495;28;20461;-69
2021/08/04 00:03:35;;;;;;;3.25;2.85;;;14.10;94.00;;;;;;5034369;28;20512;-69
2021/08/04 00:06:01;;;;;;;3.28;2.50;;;14.00;94.00;;;;;;5032956;28;20024;-69
2021/08/04 00:08:27;;;;;;;2.60;1.92;;;14.00;94.10;;;;;;5032696;28;20104;-69
2021/08/04 00:10:52;;;;;;;2.65;2.10;;;14.00;94.10;;;;;;5034293;28;20474;-68
2021/08/04 00:13:18;;;;;;;3.95;1.73;;;14.00;94.20;;;;;;5032788;28;20028;-69
2021/08/04 00:15:43;;;;;;;1.67;1.48;;;13.90;94.30;;;;;;5034259;28;20488;-69
2021/08/04 00:18:09;;;;;;;1.85;1.38;;;13.80;94.40;;;;;;5034047;28;20477;-69
2021/08/04 00:20:37;;;;;;;1.75;1.50;;;13.80;94.40;;;;;;5034177;28;20457;-69
2021/08/04 00:23:03;;;;;;;1.80;1.40;;;13.80;94.50;;;;;;5034171;28;20083;-69
2021/08/04 00:25:29;;;;;;;1.70;1.10;;;13.70;94.50;;;;;;5032648;28;20465;-69
2021/08/04 00:27:54;;;;;;;2.60;1.33;;;13.70;94.50;;;;;;5033914;28;20030;-69
2021/08/04 00:30:20;;;;;;;1.20;0.90;;;13.70;94.60;;;;;;5033730;28;20024;-69
2021/08/04 00:32:45;;;;;;;1.23;1.02;;;13.60;94.50;;;;;;5032651;28;20053;-69
2021/08/04 00:35:11;;;;;;;1.20;1.00;;;13.60;94.60;;;;;;5032427;28;20494;-69
2021/08/04 00:37:37;;;;;;;1.98;1.38;;;13.60;94.60;;;;;;5046736;28;20037;-68
2021/08/04 00:40:04;;;;;;;1.83;1.08;;;13.50;94.60;;;;;;5033801;28;20473;-69
2021/08/04 00:42:30;;;;;;;1.45;1.10;;;13.50;94.70;;;;;;5033575;28;20076;-69
2021/08/04 00:44:55;;;;;;;2.33;1.20;;;13.50;94.70;;;;;;5032340;28;20033;-69
2021/08/04 00:47:21;;;;;;;1.50;1.33;;;13.50;94.70;;;;;;5032355;28;20029;-69
2021/08/04 00:49:47;;;;;;;1.83;1.50;;;13.50;94.70;;;;;;5032333;28;20022;-69
2021/08/04 00:52:13;;;;;;;1.92;1.70;;;13.40;94.70;;;;;;5033340;28;20033;-69
2021/08/04 00:54:38;;;;;;;2.28;2.08;;;13.40;94.80;;;;;;5031979;28;20025;-69
2021/08/04 00:57:04;;;;;;;2.88;2.40;;;13.40;94.80;;;;;;5033296;28;20052;-69
2021/08/04 00:59:30;;;;;;;2.40;2.17;;;13.40;94.90;;;;;;5032120;28;20026;-69
2021/08/04 01:02:16;;;;;;;3.65;2.13;;;13.40;94.90;;;;;;5046217;28;20146;-69
2021/08/04 01:04:53;;;;;;;3.50;2.38;;;13.40;94.90;;;;;;5033283;28;20049;-69
2021/08/04 01:07:26;;;;;;;2.22;2.03;;;13.40;95.00;;;;;;5031665;28;20021;-69
2021/08/04 01:10:01;;;;;;;2.15;1.95;;;13.30;95.00;;;;;;5031918;28;20029;-69
2021/08/04 01:12:37;;;;;;;2.45;2.20;;;13.30;95.10;;;;;;5033218;28;20037;-69
2021/08/04 01:15:07;;;;;;;2.08;1.85;;;13.30;95.20;;;;;;5033147;28;20068;-69
2021/08/04 01:17:36;;;;;;;3.00;2.05;;;13.20;95.20;;;;;;5033005;28;20017;-69
2021/08/04 01:20:14;;;;;;;2.50;1.83;;;13.20;95.20;;;;;;5032586;28;20018;-70
2021/08/04 01:23:21;;;;;;;2.53;2.10;;;13.20;95.20;;;;;;5032487;28;20009;-69
2021/08/04 01:25:58;;;;;;;3.47;2.58;;;13.20;95.30;;;;;;5030977;28;20017;-69
2021/08/04 01:28:36;;;;;;;3.70;2.60;;;13.20;95.40;;;;;;5030224;28;20021;-69
2021/08/04 01:31:15;;;;;;;2.90;2.22;;;13.10;95.40;;;;;;5030664;28;20044;-69
2021/08/04 01:33:45;;;;;;;3.28;2.55;;;13.10;95.40;;;;;;5031578;28;20025;-69
2021/08/04 01:36:12;;;;;;;8.90;2.55;;;13.10;95.50;;;;;;5031709;28;20049;-69
2021/08/04 01:38:39;;;;;;;3.13;2.83;;;13.10;95.40;;;;;;5031529;28;20025;-69
2021/08/04 01:41:07;;;;;;;3.63;3.00;;;13.00;95.40;;;;;;5031829;28;20014;-69
2021/08/04 01:43:33;;;;;;;3.58;2.60;;;13.00;95.50;;;;;;5031873;28;20017;-69
2021/08/04 01:45:59;;;;;;;3.30;2.42;;;13.00;95.50;;;;;;5031383;28;20021;-69
2021/08/04 01:48:25;;;;;;;2.55;2.22;;;13.00;95.60;;;;;;5031636;28;20096;-69
2021/08/04 01:50:54;;;;;;;3.33;2.50;;;12.90;95.50;;;;;;5031945;28;20037;-69
2021/08/04 01:53:23;;;;;;;2.72;2.33;;;12.90;95.60;;;;;;5044740;28;20017;-69
2021/08/04 01:55:48;;;;;;;2.97;2.42;;;12.90;95.60;;;;;;5032383;28;20099;-69
2021/08/04 01:58:14;;;;;;;2.28;1.95;;;12.90;95.60;;;;;;5032158;28;20053;-69
2021/08/04 02:00:40;;;;;;;2.83;2.30;;;12.80;95.70;;;;;;5032259;28;20025;-69
2021/08/04 02:03:05;;;;;;;2.35;2.15;;;12.80;95.70;;;;;;5030684;28;20271;-69
2021/08/04 02:05:31;;;;;;;2.58;2.25;;;12.80;95.70;;;;;;5032241;28;20022;-69
2021/08/04 02:08:03;;;;;;;2.90;2.58;;;12.80;95.80;;;;;;5031663;28;20057;-69
2021/08/04 02:10:46;;;;;;;2.95;2.63;;;12.70;95.80;;;;;;5032324;28;20029;-69
2021/08/04 02:13:38;;;;;;;2.55;2.28;;;12.80;95.80;;;;;;5032047;28;20017;-69
2021/08/04 02:16:21;;;;;;;2.95;2.40;;;12.70;95.90;;;;;;5029575;28;20112;-69
2021/08/04 02:19:05;;;;;;;3.50;2.33;;;12.70;95.90;;;;;;5045421;28;20100;-69
2021/08/04 02:21:32;;;;;;;2.38;2.10;;;12.70;95.90;;;;;;5031905;28;20021;-69
2021/08/04 02:23:59;;;;;;;3.38;2.33;;;12.60;96.00;;;;;;5045629;28;20025;-69
2021/08/04 02:26:28;;;;;;;3.22;2.28;;;12.60;96.00;;;;;;5031845;28;20025;-69
2021/08/04 02:28:56;;;;;;;3.38;2.92;;;12.60;96.10;;;;;;5031804;28;20093;-69
2021/08/04 02:31:22;;;;;;;3.03;2.50;;;12.60;96.10;;;;;;5032056;28;20139;-69
2021/08/04 02:33:48;;;;;;;3.20;2.10;;;12.60;96.10;;;;;;5030544;28;20108;-69
2021/08/04 02:36:13;;;;;;;3.10;2.40;;;12.60;96.20;;;;;;5031816;28;20116;-69
2021/08/04 02:38:39;;;;;;;3.15;2.08;;;12.60;96.20;;;;;;5031314;28;20025;-68
2021/08/04 02:41:05;;;;;;;3.33;2.20;;;12.60;96.20;;;;;;5031755;28;20076;-70
2021/08/04 02:43:32;;;;;;;3.78;2.53;;;12.60;96.20;;;;;;5031694;28;20033;-69
2021/08/04 02:45:58;;;;;;;2.33;2.08;;;12.50;96.30;;;;;;5030247;28;20029;-69
2021/08/04 02:48:25;;;;;;;2.42;2.15;;;12.50;96.30;;;;;;5031619;28;20092;-69
2021/08/04 02:50:52;;;;;;;2.60;2.20;;;12.50;96.30;;;;;;5031655;28;20048;-69
2021/08/04 02:53:19;;;;;;;2.95;2.38;;;12.50;96.30;;;;;;5029929;28;20068;-69
2021/08/04 02:55:48;;;;;;;2.80;2.28;;;12.50;96.30;;;;;;5031397;28;20048;-69
2021/08/04 02:58:13;;;;;;;3.22;2.40;;;12.40;96.60;;;;;;5031469;28;20025;-69
2021/08/04 03:00:40;;;;;;;2.40;2.20;;;12.40;96.40;;;;;;5031889;28;20024;-69
2021/08/04 03:03:06;;;;;;;3.00;2.13;;;12.40;96.40;;;;;;5030199;28;20416;-69
2021/08/04 03:05:32;;;;;;;2.83;2.50;;;12.40;96.40;;;;;;5030494;28;20026;-69
2021/08/04 03:07:58;;;;;;;3.25;2.50;;;12.40;96.50;;;;;;5029877;28;20030;-70
2021/08/04 03:10:24;;;;;;;2.97;2.35;;;12.40;96.50;;;;;;5031297;28;20052;-69
2021/08/04 03:12:49;;;;;;;2.47;2.25;;;12.30;96.50;;;;;;5031467;28;20029;-69
2021/08/04 03:15:15;;;;;;;3.30;2.13;;;12.30;96.60;;;;;;5031451;28;20492;-69
2021/08/04 03:17:40;;;;;;;1.98;1.63;;;12.30;96.60;;;;;;5029909;28;20021;-69
2021/08/04 03:20:06;;;;;;;1.85;1.52;;;12.20;96.90;;;;;;5031421;28;20044;-69
2021/08/04 03:22:32;;;;;;;1.95;1.45;;;12.20;96.60;;;;;;5031480;28;20021;-69
2021/08/04 03:24:58;;;;;;;1.70;1.50;;;12.20;96.60;;;;;;5029601;28;20063;-69
2021/08/04 03:27:24;;;;;;;2.30;1.75;;;12.20;96.60;;;;;;5031352;28;20021;-69
2021/08/04 03:29:49;;;;;;;1.75;1.55;;;12.10;96.60;;;;;;5031423;28;20099;-69
2021/08/04 03:32:16;;;;;;;1.77;1.52;;;12.10;96.60;;;;;;5031497;28;20021;-69
2021/08/04 03:34:41;;;;;;;2.88;2.28;;;12.10;96.60;;;;;;5031176;28;20029;-69
2021/08/04 03:37:07;;;;;;;2.80;2.20;;;12.10;96.60;;;;;;5029730;28;20064;-69
2021/08/04 03:39:32;;;;;;;3.10;2.05;;;12.10;96.70;;;;;;5031031;28;20022;-69
2021/08/04 03:41:58;;;;;;;2.60;2.08;;;12.10;96.70;;;;;;5030742;28;20029;-69
2021/08/04 03:44:23;;;;;;;2.70;2.40;;;12.10;96.70;;;;;;5032597;28;20104;-69
2021/08/04 03:46:49;;;;;;;3.80;2.30;;;12.10;96.70;;;;;;5035025;28;20021;-69
2021/08/04 03:49:15;;;;;;;3.38;2.35;;;12.10;96.70;;;;;;5033227;28;20502;-69
2021/08/04 03:51:41;;;;;;;2.35;2.08;;;12.00;96.70;;;;;;5048838;28;20082;-69
2021/08/04 03:54:07;;;;;;;2.25;1.50;;;12.00;96.70;;;;;;5034540;28;20059;-69
2021/08/04 03:56:33;;;;;;;1.77;1.25;;;12.10;96.80;;;;;;5034350;28;20029;-69
2021/08/04 03:58:58;;;;;;;2.25;1.30;;;12.00;96.80;;;;;;5034446;28;20010;-69
2021/08/04 04:01:24;;;;;;;1.63;1.10;;;11.90;96.80;;;;;;5034446;28;20017;-69
2021/08/04 04:03:49;;;;;;;2.00;1.40;;;11.90;96.80;;;;;;5034452;28;20473;-69
2021/08/04 04:06:15;;;;;;;1.60;1.20;;;11.90;96.90;;;;;;5034328;28;20107;-69
2021/08/04 04:08:40;;;;;;;1.73;1.40;;;11.90;96.90;;;;;;5034129;28;20381;-69
2021/08/04 04:11:06;;;;;;;2.00;1.67;;;11.90;96.80;;;;;;5032943;28;20044;-69
2021/08/04 04:13:32;;;;;;;2.42;1.38;;;11.90;96.80;;;;;;5034242;28;20402;-69
2021/08/04 04:15:58;;;;;;;1.70;1.33;;;11.90;96.80;;;;;;5034321;28;20025;-70
2021/08/04 04:18:24;;;;;;;1.95;1.38;;;11.90;96.90;;;;;;5032747;28;20117;-69
2021/08/04 04:20:49;;;;;;;2.33;1.70;;;11.80;96.90;;;;;;5032979;28;20044;-69
2021/08/04 04:23:15;;;;;;;2.03;1.73;;;11.80;96.90;;;;;;5033910;28;20072;-69
2021/08/04 04:25:40;;;;;;;2.85;2.30;;;11.80;96.90;;;;;;5047936;28;20018;-69
2021/08/04 04:28:06;;;;;;;2.55;2.00;;;11.80;96.90;;;;;;5032760;28;20029;-69
2021/08/04 04:30:31;;;;;;;2.72;2.00;;;11.80;96.90;;;;;;5033978;28;20477;-69
2021/08/04 04:32:57;;;;;;;3.13;2.08;;;11.80;96.90;;;;;;5033876;28;20100;-69
2021/08/04 04:35:22;;;;;;;3.20;2.42;;;11.90;96.90;;;;;;5032415;28;20112;-70
2021/08/04 04:37:48;;;;;;;3.70;2.05;;;11.90;97.00;;;;;;5033515;28;20128;-69
2021/08/04 04:40:13;;;;;;;3.08;2.20;;;11.90;97.00;;;;;;5032509;28;20044;-69
2021/08/04 04:42:39;;;;;;;2.33;1.80;;;11.90;97.00;;;;;;5033287;28;20076;-69
2021/08/04 04:45:05;;;;;;;2.85;2.10;;;11.80;97.00;;;;;;5033719;28;20384;-69
2021/08/04 04:47:31;;;;;;;3.15;1.70;;;11.80;97.00;;;;;;5033634;28;20025;-69
2021/08/04 04:49:56;;;;;;;2.60;1.90;;;11.80;97.00;;;;;;5032210;28;20026;-69
2021/08/04 04:52:22;;;;;;;1.75;1.40;;;11.90;97.00;;;;;;5032025;28;20033;-69
2021/08/04 04:54:47;;;;;;;2.40;1.63;;;11.90;97.00;;;;;;5032172;28;20032;-69
2021/08/04 04:57:13;;;;;;;2.10;1.50;;;11.90;97.00;;;;;;5031949;28;20049;-69
2021/08/04 04:59:38;;;;;;;2.28;1.70;;;11.90;96.90;;;;;;5032010;28;20483;-69
2021/08/04 05:02:04;;;;;;;2.28;1.65;;;11.90;96.90;;;;;;5033882;28;20416;-69
2021/08/04 05:04:29;;;;;;;2.50;1.63;;;11.90;96.90;;;;;;5032611;28;20022;-70
2021/08/04 05:06:55;;;;;;;2.53;1.65;;;11.90;97.00;;;;;;5033984;28;20104;-69
2021/08/04 05:09:20;;;;;;;2.88;1.63;;;11.90;97.10;;;;;;5033377;28;20026;-70
2021/08/04 05:11:46;;;;;;;2.45;1.40;;;11.90;97.10;;;;;;5033721;28;20035;-69
2021/08/04 05:14:11;;;;;;;2.97;1.35;;;11.90;97.10;;;;;;5034022;28;20127;-69
2021/08/04 05:16:37;;;;;;;4.57;1.55;;;12.00;97.10;;;;;;5032600;28;20036;-69
2021/08/04 05:19:02;;;;;;;3.60;1.48;;;12.00;97.20;;;;;;5032579;28;20076;-70
2021/08/04 05:21:28;;;;;;;1.85;1.50;;;12.10;97.20;;;;;;5033795;28;20025;-69
2021/08/04 05:23:53;;;;;;;1.83;1.40;;;12.00;97.20;;;;;;5033731;28;20018;-70
2021/08/04 05:26:19;;;;;;;1.80;1.40;;;12.10;97.30;;;;;;5033802;28;20397;-69
2021/08/04 05:28:44;;;;;;;2.20;1.55;;;12.10;97.20;;;;;;5033486;28;20028;-70
2021/08/04 05:31:10;;;;;;;2.33;1.60;;;12.10;97.20;;;;;;5032533;28;20025;-70
2021/08/04 05:33:36;;;;;;;2.60;1.48;;;12.20;97.20;;;;;;5033518;28;20021;-69
2021/08/04 05:36:01;;;;;;;2.40;1.92;;;12.20;97.20;;;;;;5033465;28;20053;-69
2021/08/04 05:38:27;;;;;;;2.90;2.13;;;12.20;97.20;;;;;;5033284;28;20057;-69
2021/08/04 05:40:52;;;;;;;2.90;1.85;;;12.30;97.20;;;;;;5033417;28;20080;-69
2021/08/04 05:43:18;;;;;;;4.03;2.40;;;12.30;97.20;;;;;;5033245;28;20405;-69
2021/08/04 05:45:43;;;;;;;3.33;2.05;;;12.30;97.30;;;;;;5033383;28;20064;-69
2021/08/04 05:48:09;;;;;;;2.33;2.13;;;12.40;97.30;;;;;;5033419;28;20040;-70
2021/08/04 05:50:34;;;;;;;2.78;2.15;;;12.40;97.40;;;;;;5033341;28;20022;-69
2021/08/04 05:53:00;;;;;;;2.50;2.00;;;12.50;97.40;;;;;;5023637;28;20026;-69
2021/08/04 05:55:25;;;;;;;2.63;1.92;;;12.50;97.40;;;;;;5033274;28;20037;-70
2021/08/04 05:57:51;;;;;;;4.72;2.88;;;12.50;97.40;;;;;;5032804;28;20036;-70
2021/08/04 06:00:16;;;;;;;3.60;3.08;;;12.60;97.40;;;;;;5031771;28;20025;-69
2021/08/04 06:02:42;;;;;;;4.72;3.08;;;12.70;97.50;;;;;;5031825;28;20044;-69
2021/08/04 06:05:08;;;;;;;4.55;2.88;;;12.70;97.60;;;;;;5031497;28;20037;-69
2021/08/04 06:07:35;;;;;;;3.72;2.70;;;12.80;97.70;;;;;;5032734;28;20028;-69
2021/08/04 06:10:00;;;;;;;3.08;2.75;;;12.90;98.10;;;;;;5018017;28;20112;-69
2021/08/04 06:12:26;;;;;;;4.72;2.83;;;13.00;97.90;;;;;;5033123;28;20121;-69
2021/08/04 06:14:51;;;;;;;2.97;2.53;;;13.00;98.00;;;;;;5032814;28;20032;-69
2021/08/04 06:17:17;;;;;;;4.15;2.83;;;13.10;98.10;;;;;;5032895;28;20030;-69
2021/08/04 06:19:42;;;;;;;3.85;3.10;;;13.10;98.10;;;;;;5032929;28;20092;-69
2021/08/04 06:22:08;;;;;;;5.88;3.58;;;13.20;98.20;;;;;;5032690;28;20037;-69
2021/08/04 06:24:34;;;;;;;5.13;3.72;;;13.30;98.40;;;;;;5032057;28;20448;-68
2021/08/04 06:27:00;;;;;;;5.03;4.22;;;13.40;98.40;;;;;;5032348;28;20022;-69
2021/08/04 06:29:25;;;;;;;5.10;4.55;;;13.40;98.50;;;;;;5030975;28;20393;-69
2021/08/04 06:31:51;;;;;;;4.38;3.80;;;13.50;98.50;;;;;;5030622;28;20477;-69
2021/08/04 06:34:16;;;;;;;4.60;3.97;;;13.60;98.60;;;;;;5031547;28;20155;-69
2021/08/04 06:36:42;;;;;;;4.95;3.95;;;13.70;98.70;;;;;;5030804;28;20041;-69
2021/08/04 06:39:07;;;;;;;7.40;4.78;;;13.80;98.70;;;;;;5031193;28;20534;-69
2021/08/04 06:41:33;;;;;;;6.22;4.82;;;13.90;98.80;;;;;;5031815;28;20485;-70
2021/08/04 06:43:58;;;;;;;4.82;4.32;;;14.00;99.20;;;;;;5031920;28;20025;-69
2021/08/04 06:46:35;;;;;;;5.70;4.35;;;14.00;98.90;;;;;;5030970;28;20022;-68
2021/08/04 06:49:02;;;;;;;5.20;4.22;;;14.10;99.00;;;;;;5032031;28;20105;-69
2021/08/04 06:51:28;;;;;;;4.93;4.43;;;14.20;99.10;;;;;;5032790;28;20032;-69
2021/08/04 06:53:55;;;;;;;5.60;4.68;;;14.30;99.10;;;;;;5029347;28;20029;-69
2021/08/04 06:56:20;;;;;;;5.95;4.50;;;14.40;99.20;;;;;;5029957;28;20014;-68
2021/08/04 06:58:46;;;;;;;5.60;4.70;;;14.50;99.30;;;;;;5031197;28;20035;-69
2021/08/04 07:01:11;;;;;;;5.32;4.50;;;14.50;99.30;;;;;;5030813;28;20440;-69
2021/08/04 07:03:38;;;;;;;4.93;4.43;;;14.60;99.40;;;;;;5030830;28;20362;-69
2021/08/04 07:06:05;;;;;;;6.45;3.95;;;14.70;99.50;;;;;;5029070;28;20571;-68
2021/08/04 07:08:31;;;;;;;5.57;5.05;;;14.80;99.60;;;;;;5032294;28;20028;-68
2021/08/04 07:11:05;;;;;;;7.10;4.75;;;14.90;99.60;;;;;;5032071;28;20033;-68
2021/08/04 07:13:31;;;;;;;6.03;4.70;;;14.90;99.60;;;;;;5030937;28;20049;-69
2021/08/04 07:15:56;;;;;;;7.10;5.03;;;15.00;99.70;;;;;;5032021;28;20061;-69
2021/08/04 07:18:22;;;;;;;6.97;4.95;;;15.10;99.70;;;;;;5031931;28;20048;-68
2021/08/04 07:20:48;;;;;;;4.70;4.13;;;15.10;99.80;;;;;;5035823;28;20022;-68
2021/08/04 07:23:14;;;;;;;5.97;5.03;;;15.20;99.80;;;;;;5035639;28;20064;-68
2021/08/04 07:25:39;;;;;;;5.35;4.53;;;15.30;99.80;;;;;;5035906;28;20366;-68
2021/08/04 07:28:05;;;;;;;6.30;5.30;;;15.40;99.90;;;;;;5034643;28;20543;-69
2021/08/04 07:30:30;;;;;;;6.00;4.90;;;15.40;99.90;;;;;;5034727;28;20053;-68
2021/08/04 07:32:56;;;;;;;7.82;4.97;;;15.50;99.90;;;;;;5035612;28;20439;-68
2021/08/04 07:35:28;;;;;;;5.00;4.15;;;15.60;99.80;;;;;;5035745;28;20036;-68
2021/08/04 07:37:54;;;;;;;4.53;4.13;;;15.70;99.80;;;;;;5035569;28;20077;-68
2021/08/04 07:40:20;;;;;;;5.53;4.65;;;15.80;99.80;;;;;;5035624;28;20056;-68
2021/08/04 07:43:03;;;;;;;7.32;4.63;;;15.90;99.80;;;;;;5032843;28;20056;-68
2021/08/04 07:45:31;;;;;;;5.75;3.97;;;16.00;99.70;;;;;;5035226;28;20064;-68
2021/08/04 07:47:57;;;;;;;4.68;4.13;;;16.00;99.70;;;;;;5035545;28;20029;-69
2021/08/04 07:50:22;;;;;;;6.97;4.55;;;16.10;99.70;;;;;;5035529;28;20037;-68
2021/08/04 07:52:48;;;;;;;4.55;4.15;;;16.20;99.60;;;;;;5035298;28;20034;-69
2021/08/04 07:55:16;;;;;;;4.38;3.97;;;16.30;99.60;;;;;;5035323;28;20501;-68
2021/08/04 07:57:41;;;;;;;5.65;4.25;;;16.40;99.50;;;;;;5035113;28;20017;-69
2021/08/04 08:00:08;;;;;;;5.18;3.80;;;16.40;99.40;;;;;;5033691;28;20033;-68
2021/08/04 08:02:33;;;;;;;4.40;3.78;;;16.50;99.30;;;;;;5034260;28;20397;-68
2021/08/04 08:04:59;;;;;;;4.63;4.22;;;16.60;99.20;;;;;;5035074;28;20026;-68
2021/08/04 08:07:24;;;;;;;5.75;4.13;;;16.70;99.20;;;;;;5035204;28;20029;-68
2021/08/04 08:09:50;;;;;;;4.30;3.90;;;16.80;99.10;;;;;;5035009;28;20028;-68
2021/08/04 08:12:15;;;;;;;4.93;4.00;;;16.80;99.00;;;;;;5035064;28;20026;-68
2021/08/04 08:14:41;;;;;;;6.53;4.00;;;16.90;98.80;;;;;;5034911;28;20025;-68
2021/08/04 08:17:07;;;;;;;4.03;3.65;;;17.00;98.70;;;;;;5034881;28;20046;-68
2021/08/04 08:19:32;;;;;;;4.78;3.92;;;17.10;98.60;;;;;;5034864;28;20087;-68
2021/08/04 08:22:04;;;;;;;4.57;3.38;;;17.20;98.50;;;;;;5019350;28;20072;-68
2021/08/04 08:24:30;;;;;;;4.25;3.13;;;17.30;98.30;;;;;;5034938;28;20025;-68
2021/08/04 08:26:55;;;;;;;4.88;3.22;;;17.40;98.10;;;;;;5034783;28;20083;-68
2021/08/04 08:29:21;;;;;;;5.20;3.10;;;17.50;97.80;;;;;;5034776;28;20057;-68
2021/08/04 08:31:46;;;;;;;3.65;3.28;;;17.60;97.70;;;;;;5032829;28;20030;-68
2021/08/04 08:34:12;;;;;;;4.72;3.60;;;17.70;97.50;;;;;;5034863;28;20025;-67
2021/08/04 08:36:38;;;;;;;3.35;3.03;;;17.80;97.40;;;;;;5034385;28;20045;-68
2021/08/04 08:39:06;;;;;;;4.22;3.10;;;18.00;97.20;;;;;;5033539;28;20079;-67
2021/08/04 08:41:32;;;;;;;4.40;3.30;;;18.00;97.10;;;;;;5032669;28;20025;-67
2021/08/04 08:43:58;;;;;;;5.03;3.33;;;18.10;96.90;;;;;;5032976;28;20026;-67
2021/08/04 08:46:30;;;;;;;3.08;2.35;;;18.20;96.70;;;;;;5017980;28;20021;-67
2021/08/04 08:48:56;;;;;;;3.97;2.67;;;18.30;96.40;;;;;;5034532;28;20037;-67
2021/08/04 08:51:22;;;;;;;4.03;3.10;;;18.40;96.20;;;;;;5045789;28;20022;-67
2021/08/04 08:53:50;;;;;;;3.83;2.72;;;18.50;96.00;;;;;;5038644;28;20024;-67
2021/08/04 08:56:18;;;;;;;4.50;2.58;;;18.60;95.80;;;;;;5039899;28;20025;-67
2021/08/04 08:58:48;;;;;;;4.97;2.95;;;18.70;95.60;;;;;;5034572;28;20110;-67
2021/08/04 09:01:15;;;;;;;2.95;1.90;;;18.80;95.00;;;;;;5046093;28;20021;-67
2021/08/04 09:03:41;;;;;;;2.22;1.70;;;18.90;94.70;;;;;;5048200;28;20021;-67
2021/08/04 09:06:06;;;;;;;2.40;2.20;;;19.00;94.50;;;;;;5044641;28;20029;-67
2021/08/04 09:08:35;;;;;;;2.88;2.25;;;19.10;94.20;;;;;;5037305;28;20029;-68
2021/08/04 09:11:15;;;;;;;2.85;1.63;;;19.20;93.80;;;;;;5033413;28;20068;-68
2021/08/04 09:13:42;;;;;;;2.90;2.03;;;19.30;93.40;;;;;;5024807;28;20017;-69
2021/08/04 09:16:08;;;;;;;4.18;2.15;;;19.30;93.30;;;;;;5046772;28;20392;-68
2021/08/04 09:18:51;;;;;;;2.42;1.50;;;19.40;93.00;;;;;;5038971;28;20025;-68
2021/08/04 09:21:21;;;;;;;2.70;1.90;;;19.60;92.70;;;;;;5035707;28;20021;-68
2021/08/04 09:23:55;;;;;;;2.40;1.42;;;19.60;92.20;;;;;;5030173;28;20110;-68
2021/08/04 09:26:25;;;;;;;1.58;1.30;;;19.80;91.90;;;;;;5048636;28;20381;-67
2021/08/04 09:29:04;;;;;;;2.00;1.60;;;19.90;91.60;;;;;;5033843;28;20022;-68
2021/08/04 09:31:51;;;;;;;2.17;1.30;;;20.00;91.00;;;;;;5038499;28;20032;-68
2021/08/04 09:34:39;;;;;;;3.55;1.30;;;20.10;90.80;;;;;;5040714;28;20028;-68
2021/08/04 09:37:34;;;;;;;3.03;1.67;;;20.20;90.50;;;;;;5044439;28;20041;-68
2021/08/04 09:40:02;;;;;;;2.95;2.00;;;20.30;90.10;;;;;;5048889;28;20055;-67
2021/08/04 09:42:45;;;;;;;3.67;2.30;;;20.40;89.60;;;;;;5028305;28;20523;-68
2021/08/04 09:45:13;;;;;;;3.88;2.45;;;20.50;89.00;;;;;;5038387;28;20021;-68
2021/08/04 09:47:57;;;;;;;3.65;2.67;;;20.60;88.70;;;;;;5045325;28;20028;-67
2021/08/04 09:50:23;;;;;;;3.67;3.28;;;20.70;87.20;;;;;;5033239;28;20080;-69
2021/08/04 09:52:56;;;;;;;3.72;3.08;;;20.70;84.00;;;;;;5033762;28;20025;-68
2021/08/04 09:55:22;;;;;;;3.88;2.92;;;20.80;83.20;;;;;;5038395;28;20064;-68
2021/08/04 09:57:51;;;;;;;4.85;2.45;;;20.90;82.00;;;;;;5032917;28;20029;-68
2021/08/04 10:00:18;;;;;;;2.38;1.80;;;21.00;82.30;;;;;;5033009;28;20428;-68
2021/08/04 10:02:44;;;;;;;3.08;2.40;;;21.20;82.50;;;;;;5032701;28;20057;-68
2021/08/04 10:05:21;;;;;;;3.28;2.35;;;21.40;82.50;;;;;;5032896;28;20021;-68
2021/08/04 10:08:00;;;;;;;3.55;2.30;;;21.60;81.60;;;;;;5032924;28;20547;-68
2021/08/04 10:10:26;;;;;;;3.58;2.30;;;21.60;81.50;;;;;;5032447;28;20026;-67
2021/08/04 10:12:54;;;;;;;3.08;2.33;;;21.70;81.80;;;;;;5031258;28;20087;-68
2021/08/04 10:15:19;;;;;;;2.92;2.00;;;21.80;81.40;;;;;;5032711;28;20075;-68
2021/08/04 10:17:45;;;;;;;3.17;2.03;;;21.80;81.30;;;;;;5032620;28;20029;-67
2021/08/04 10:20:11;;;;;;;2.92;2.03;;;21.90;81.20;;;;;;5031478;28;20136;-67
2021/08/04 10:22:38;;;;;;;4.25;1.73;;;22.00;81.00;;;;;;5031461;28;20133;-67
2021/08/04 10:25:04;;;;;;;2.72;1.73;;;22.10;80.70;;;;;;5031998;28;20071;-67
2021/08/04 10:27:30;;;;;;;1.88;1.67;;;22.20;80.30;;;;;;5030145;28;20025;-68
2021/08/04 10:30:06;;;;;;;3.03;2.17;;;22.40;80.00;;;;;;5029489;28;20103;-68
2021/08/04 10:32:32;;;;;;;2.80;2.00;;;22.50;79.10;;;;;;5031449;28;20359;-67
2021/08/04 10:34:58;;;;;;;2.80;1.40;;;22.50;79.00;;;;;;5030584;28;20033;-68
2021/08/04 10:37:24;;;;;;;2.13;1.65;;;22.60;78.90;;;;;;5028360;28;20434;-67
2021/08/04 10:39:50;;;;;;;3.25;1.55;;;22.70;78.60;;;;;;5031293;28;20022;-67
2021/08/04 10:42:16;;;;;;;2.67;1.20;;;22.80;78.40;;;;;;5030475;28;20044;-67
2021/08/04 10:45:03;;;;;;;2.60;1.58;;;22.80;78.20;;;;;;5032343;28;20064;-68
2021/08/04 10:47:29;;;;;;;2.47;1.70;;;22.90;77.80;;;;;;5032425;28;20500;-67
2021/08/04 10:50:12;;;;;;;3.15;1.70;;;22.90;78.00;;;;;;5032306;28;20029;-67
2021/08/04 10:52:56;;;;;;;2.72;1.40;;;22.90;77.60;;;;;;5032268;28;20029;-68
2021/08/04 10:55:22;;;;;;;2.30;1.65;;;22.90;77.50;;;;;;5036493;28;20025;-67
2021/08/04 10:58:07;;;;;;;2.65;2.28;;;22.90;76.90;;;;;;5036383;28;20381;-67
2021/08/04 11:00:34;;;;;;;4.57;2.35;;;22.70;75.30;;;;;;5036307;28;20062;-67
2021/08/04 11:02:59;;;;;;;2.80;2.60;;;22.40;74.00;;;;;;5035860;28;20021;-67
2021/08/04 11:05:45;;;;;;;4.03;2.67;;;22.30;73.30;;;;;;5035537;28;20048;-67
2021/08/04 11:08:15;;;;;;;3.17;2.15;;;22.10;73.00;;;;;;5035701;28;20493;-68
2021/08/04 11:10:41;;;;;;;2.65;2.08;;;22.10;73.50;;;;;;5035776;28;20101;-68
2021/08/04 11:13:49;;;;;;;;;;;;;;;;;;;;;
2021/08/04 11:17:03;;;;;;;;;;;22.20;73.40;;;;;;5036129;28;20013;-67
2021/08/04 11:19:35;;;;;;;2.03;1.40;;;22.30;74.00;;;;;;5027849;28;20393;-67
2021/08/04 11:22:16;;;;;;;2.70;2.08;;;22.40;73.70;;;;;;5030497;28;20030;-67
2021/08/04 11:24:54;;;;;;;3.00;1.52;;;22.50;72.80;;;;;;5033989;28;20083;-67
2021/08/04 11:27:32;;;;;;;2.22;1.95;;;22.60;73.00;;;;;;5034105;28;20500;-68
2021/08/04 11:29:59;;;;;;;2.65;1.70;;;22.70;73.00;;;;;;5034163;28;20568;-67
2021/08/04 11:32:26;;;;;;;3.05;1.85;;;22.70;73.30;;;;;;5033131;28;20033;-67
2021/08/04 11:34:52;;;;;;;2.00;1.70;;;22.90;73.40;;;;;;5035149;28;20029;-68
2021/08/04 11:37:19;;;;;;;2.97;1.50;;;23.10;73.50;;;;;;5035042;28;20505;-67
2021/08/04 11:40:02;;;;;;;2.22;1.85;;;23.30;73.30;;;;;;5035262;28;20021;-67
2021/08/04 11:43:03;;;;;;;2.25;1.40;;;23.60;72.90;;;;;;5034687;28;20435;-67
2021/08/04 11:45:29;;;;;;;2.28;1.65;;;23.80;72.00;;;;;;5035127;28;20018;-68
2021/08/04 11:47:55;;;;;;;2.35;1.90;;;23.90;71.70;;;;;;5035106;28;20566;-68
2021/08/04 11:50:21;;;;;;;2.30;1.80;;;24.00;71.10;;;;;;5034903;28;20112;-67
2021/08/04 11:52:46;;;;;;;2.17;1.65;;;24.00;70.70;;;;;;5034510;28;20027;-67
2021/08/04 11:55:12;;;;;;;2.88;2.20;;;24.00;70.60;;;;;;5033732;28;20030;-67
2021/08/04 11:57:45;;;;;;;3.40;1.90;;;23.90;69.80;;;;;;5034631;28;20071;-68
2021/08/04 12:00:39;;;;;;;2.80;1.80;;;23.70;69.70;;;;;;5033584;28;20052;-67
2021/08/04 12:03:17;;;;;;;2.28;1.58;;;23.70;70.60;;;;;;5034622;28;20513;-68
2021/08/04 12:06:20;;;;;;;2.40;1.60;;;23.80;70.50;;;;;;5034211;28;20030;-67
2021/08/04 12:08:47;;;;;;;2.35;1.50;;;23.80;70.40;;;;;;5035128;28;20525;-68
2021/08/04 12:11:12;;;;;;;2.88;1.40;;;23.80;70.30;;;;;;5033646;28;20474;-68
2021/08/04 12:13:38;;;;;;;3.20;1.42;;;23.80;70.30;;;;;;5034791;28;20028;-68
2021/08/04 12:16:06;;;;;;;2.20;1.50;;;23.70;70.30;;;;;;5035079;28;20030;-67
2021/08/04 12:18:31;;;;;;;4.13;2.00;;;23.70;70.30;;;;;;5035041;28;20026;-67
2021/08/04 12:20:57;;;;;;;2.65;1.42;;;23.80;70.20;;;;;;5034878;28;20105;-67
2021/08/04 12:23:23;;;;;;;3.10;1.70;;;23.70;69.90;;;;;;5033495;28;20428;-67
2021/08/04 12:25:59;;;;;;;2.65;1.65;;;23.80;69.80;;;;;;5034827;28;20029;-67
2021/08/04 12:28:29;;;;;;;2.53;1.55;;;23.80;69.70;;;;;;5034450;28;20030;-66
2021/08/04 12:30:56;;;;;;;2.47;1.42;;;23.80;69.80;;;;;;5020350;28;20033;-67
2021/08/04 12:33:27;;;;;;;1.52;1.20;;;23.90;69.90;;;;;;5034773;28;20037;-67
2021/08/04 12:36:04;;;;;;;1.60;1.50;;;24.00;69.80;;;;;;5034433;28;20025;-67
2021/08/04 12:38:32;;;;;;;3.60;2.45;;;24.00;69.50;;;;;;5034516;28;20033;-67
2021/08/04 12:40:59;;;;;;;3.28;2.30;;;23.80;67.90;;;;;;5034427;28;20028;-67
2021/08/04 12:43:32;;;;;;;3.20;2.00;;;23.50;67.30;;;;;;5034347;28;20022;-67
2021/08/04 12:45:59;;;;;;;3.85;1.42;;;23.50;67.90;;;;;;5034438;28;20017;-67
2021/08/04 12:48:41;;;;;;;1.85;1.33;;;23.60;68.30;;;;;;5034539;28;20025;-67
2021/08/04 12:51:17;;;;;;;3.08;1.52;;;23.80;67.60;;;;;;5034466;28;20280;-67
2021/08/04 12:53:45;;;;;;;1.48;1.17;;;23.80;67.80;;;;;;5033919;28;20034;-67
2021/08/04 12:56:42;;;;;;;2.30;1.63;;;23.90;68.00;;;;;;5034239;28;20025;-66